Time,TemperatureF,DewpointF,PressureIn,WindDirection,WindDirectionDegrees,WindSpeedMPH,WindSpeedGustMPH,Humidity,HourlyPrecipIn,Conditions,Clouds,dailyrainin,SolarRadiationWatts/m^2,SoftwareType,DateUTC
2013-11-01 12:16:00,74.4,56.2,30.15,NW,314,5.8,5.8,53,0.00,OVC,,0.00,450.0,WeatherDisplay:10.37,2013-11-01 11:16:00,
2013-11-01 12:17:00,74.3,56.1,30.15,NNW,347,5.8,5.8,53,0.00,CLR,,0.00,452.0,WeatherDisplay:10.37,2013-11-01 11:17:00,
2013-11-01 12:21:00,74.4,57.2,30.15,NW,313,3.5,3.5,55,0.00,CLR,,0.00,522.0,WeatherDisplay:10.37,2013-11-01 11:21:00,
2013-11-01 12:22:00,74.4,57.2,30.15,North,351,1.2,1.2,55,0.00,CLR,,0.00,592.0,WeatherDisplay:10.37,2013-11-01 11:22:00,
2013-11-01 12:23:00,74.4,57.7,30.15,NNW,337,3.5,3.5,56,0.00,CLR,,0.00,599.0,WeatherDisplay:10.37,2013-11-01 11:23:00,
2013-11-01 12:26:00,74.5,57.3,30.15,NNW,344,3.5,3.5,55,0.00,CLR,,0.00,605.0,WeatherDisplay:10.37,2013-11-01 11:26:00,
2013-11-01 12:27:00,74.6,57.4,30.15,NE,50,1.2,1.2,55,0.00,CLR,,0.00,605.0,WeatherDisplay:10.37,2013-11-01 11:27:00,
2013-11-01 12:30:00,74.8,57.5,30.15,NNE,15,2.3,2.3,55,0.00,CLR,,0.00,559.0,WeatherDisplay:10.37,2013-11-01 11:30:00,
2013-11-01 12:31:00,74.7,57.5,30.15,North,5,4.0,4.0,55,0.00,CLR,,0.00,559.0,WeatherDisplay:10.37,2013-11-01 11:31:00,
2013-11-01 12:32:00,74.8,57.5,30.15,NNW,348,4.6,4.6,55,0.00,CLR,,0.00,538.0,WeatherDisplay:10.37,2013-11-01 11:32:00,
2013-11-01 12:36:00,75.0,56.7,30.15,SW,216,0.0,0.0,53,0.00,CLR,,0.00,512.0,WeatherDisplay:10.37,2013-11-01 11:36:00,
2013-11-01 12:37:00,75.0,56.7,30.15,North,355,1.2,0.0,53,0.00,CLR,,0.00,550.0,WeatherDisplay:10.37,2013-11-01 11:37:00,
2013-11-01 12:38:00,75.1,56.8,30.15,NNW,347,1.2,0.0,53,0.00,CLR,,0.00,527.0,WeatherDisplay:10.37,2013-11-01 11:38:00,
2013-11-01 12:39:00,75.1,56.8,30.14,NNE,24,0.0,0.1,53,0.00,CLR,,0.00,515.0,WeatherDisplay:10.37,2013-11-01 11:39:00,
2013-11-01 12:41:00,75.2,56.4,30.14,WNW,284,3.5,0.0,52,0.00,CLR,,0.00,554.0,WeatherDisplay:10.37,2013-11-01 11:41:00,
2013-11-01 12:42:00,75.3,57.0,30.14,West,267,0.0,0.0,53,0.00,CLR,,0.00,550.0,WeatherDisplay:10.37,2013-11-01 11:42:00,
2013-11-01 12:43:00,75.4,57.1,30.14,SSE,155,4.0,4.0,53,0.00,CLR,,0.00,605.0,WeatherDisplay:10.37,2013-11-01 11:43:00,
2013-11-01 12:44:00,75.6,56.7,30.14,South,175,5.8,5.8,52,0.00,CLR,,0.00,605.0,WeatherDisplay:10.37,2013-11-01 11:44:00,
2013-11-01 12:46:00,76.2,56.7,30.14,West,264,4.0,4.0,51,0.00,CLR,,0.00,559.0,WeatherDisplay:10.37,2013-11-01 11:46:00,
2013-11-01 12:47:00,76.2,56.7,30.14,SW,229,4.6,4.6,51,0.00,CLR,,0.00,559.0,WeatherDisplay:10.37,2013-11-01 11:47:00,
2013-11-01 12:48:00,76.3,56.8,30.14,South,188,11.5,11.5,51,0.00,CLR,,0.00,559.0,WeatherDisplay:10.37,2013-11-01 11:48:00,
2013-11-01 12:49:00,76.4,56.4,30.14,South,174,8.1,8.1,50,0.00,CLR,,0.00,559.0,WeatherDisplay:10.37,2013-11-01 11:49:00,
2013-11-01 12:52:00,76.4,56.4,30.14,SW,214,0.0,0.0,50,0.00,CLR,,0.00,454.0,WeatherDisplay:10.37,2013-11-01 11:52:00,
2013-11-01 12:53:00,76.4,55.8,30.14,SW,225,1.2,1.2,49,0.00,CLR,,0.00,541.0,WeatherDisplay:10.37,2013-11-01 11:53:00,
2013-11-01 12:54:00,76.5,56.5,30.14,South,170,3.5,3.5,50,0.00,CLR,,0.00,564.0,WeatherDisplay:10.37,2013-11-01 11:54:00,
2013-11-01 12:57:00,76.8,56.2,30.14,SW,224,8.0,8.0,49,0.00,CLR,,0.00,524.0,WeatherDisplay:10.37,2013-11-01 11:57:00,
2013-11-01 12:58:00,76.8,56.2,30.14,WSW,243,7.0,7.0,49,0.00,CLR,,0.00,524.0,WeatherDisplay:10.37,2013-11-01 11:58:00,
2013-11-01 13:00:00,76.6,55.4,30.14,South,169,3.5,3.5,48,0.00,CLR,,0.00,506.0,WeatherDisplay:10.37,2013-11-01 12:00:00,
2013-11-01 13:03:00,76.4,55.8,30.14,West,262,8.0,8.0,49,0.00,CLR,,0.00,512.0,WeatherDisplay:10.37,2013-11-01 12:03:00,
2013-11-01 13:04:00,76.3,55.7,30.14,WSW,250,9.2,9.2,49,0.00,CLR,,0.00,501.0,WeatherDisplay:10.37,2013-11-01 12:04:00,
2013-11-01 13:05:00,76.0,55.5,30.14,WNW,299,4.0,4.0,49,0.00,CLR,,0.00,513.0,WeatherDisplay:10.37,2013-11-01 12:05:00,
2013-11-01 13:08:00,75.8,55.8,30.14,West,271,5.8,5.8,50,0.00,CLR,,0.00,524.0,WeatherDisplay:10.37,2013-11-01 12:08:00,
2013-11-01 13:09:00,75.8,56.4,30.14,SW,235,5.8,5.8,51,0.00,CLR,,0.00,508.0,WeatherDisplay:10.37,2013-11-01 12:09:00,
2013-11-01 13:11:00,75.8,55.8,30.13,SSW,212,6.9,6.9,50,0.00,CLR,,0.00,504.0,WeatherDisplay:10.37,2013-11-01 12:11:00,
2013-11-01 13:13:00,75.9,55.9,30.14,WSW,242,4.6,4.6,50,0.00,CLR,,0.00,473.0,WeatherDisplay:10.37,2013-11-01 12:13:00,
2013-11-01 13:14:00,76.0,56.0,30.13,WSW,240,5.0,5.0,50,0.00,CLR,,0.00,496.0,WeatherDisplay:10.37,2013-11-01 12:14:00,
2013-11-01 13:15:00,76.2,56.2,30.13,South,169,5.8,5.8,50,0.00,CLR,,0.00,496.0,WeatherDisplay:10.37,2013-11-01 12:15:00,
2013-11-01 13:16:00,76.4,55.8,30.14,South,186,5.8,5.8,49,0.00,CLR,,0.00,506.0,WeatherDisplay:10.37,2013-11-01 12:16:00,
2013-11-01 13:18:00,76.4,55.8,30.13,SW,225,6.9,6.9,49,0.00,CLR,,0.00,343.0,WeatherDisplay:10.37,2013-11-01 12:18:00,
2013-11-01 13:19:00,76.2,55.6,30.13,SW,215,6.9,6.9,49,0.00,CLR,,0.00,339.0,WeatherDisplay:10.37,2013-11-01 12:19:00,
2013-11-01 13:20:00,76.2,55.6,30.13,SSE,164,6.9,6.9,49,0.00,CLR,,0.00,339.0,WeatherDisplay:10.37,2013-11-01 12:20:00,
2013-11-01 13:22:00,76.0,56.0,30.13,WSW,247,8.1,8.1,50,0.00,CLR,,0.00,397.0,WeatherDisplay:10.37,2013-11-01 12:22:00,
2013-11-01 13:23:00,75.9,55.9,30.13,WSW,252,8.1,8.1,50,0.00,CLR,,0.00,388.0,WeatherDisplay:10.37,2013-11-01 12:23:00,
2013-11-01 13:25:00,75.7,56.3,30.13,SW,227,6.9,6.9,51,0.00,CLR,,0.00,381.0,WeatherDisplay:10.37,2013-11-01 12:25:00,
2013-11-01 13:27:00,75.5,56.6,30.13,WSW,255,15.0,15.0,52,0.00,CLR,,0.00,341.0,WeatherDisplay:10.37,2013-11-01 12:27:00,
2013-11-01 13:29:00,75.2,58.4,30.13,WSW,242,12.0,12.0,56,0.00,CLR,,0.00,434.0,WeatherDisplay:10.37,2013-11-01 12:29:00,
2013-11-01 13:30:00,74.9,59.6,30.13,West,271,11.5,11.5,59,0.00,CLR,,0.00,455.0,WeatherDisplay:10.37,2013-11-01 12:30:00,
2013-11-01 13:31:00,74.8,59.5,30.13,SW,220,13.0,13.0,59,0.00,CLR,,0.00,455.0,WeatherDisplay:10.37,2013-11-01 12:31:00,
2013-11-01 13:32:00,74.6,59.8,30.13,SW,220,17.3,17.3,60,0.00,CLR,,0.00,455.0,WeatherDisplay:10.37,2013-11-01 12:32:00,
2013-11-01 13:35:00,74.2,59.9,30.13,SSW,209,15.0,15.0,61,0.00,CLR,,0.00,503.0,WeatherDisplay:10.37,2013-11-01 12:35:00,
2013-11-01 13:36:00,74.1,59.8,30.13,SW,220,13.8,13.8,61,0.00,CLR,,0.00,506.0,WeatherDisplay:10.37,2013-11-01 12:36:00,
2013-11-01 13:37:00,74.1,59.8,30.13,SW,228,15.0,15.0,61,0.00,CLR,,0.00,490.0,WeatherDisplay:10.37,2013-11-01 12:37:00,
2013-11-01 13:38:00,74.1,59.8,30.13,West,259,15.0,15.0,61,0.00,CLR,,0.00,476.0,WeatherDisplay:10.37,2013-11-01 12:38:00,
2013-11-01 13:40:00,73.7,59.4,30.13,SSW,211,16.1,16.1,61,0.00,CLR,,0.00,380.0,WeatherDisplay:10.37,2013-11-01 12:40:00,
2013-11-01 13:42:00,73.6,59.8,30.14,WSW,246,12.7,12.7,62,0.00,CLR,,0.00,380.0,WeatherDisplay:10.37,2013-11-01 12:42:00,
2013-11-01 13:43:00,73.3,59.5,30.14,WSW,255,13.0,13.0,62,0.00,CLR,,0.00,374.0,WeatherDisplay:10.37,2013-11-01 12:43:00,
2013-11-01 13:44:00,73.2,59.4,30.14,SW,221,12.7,12.7,62,0.00,CLR,,0.00,330.0,WeatherDisplay:10.37,2013-11-01 12:44:00,
2013-11-01 13:46:00,73.0,60.1,30.13,WSW,251,10.4,10.4,64,0.00,CLR,,0.00,330.0,WeatherDisplay:10.37,2013-11-01 12:46:00,
2013-11-01 13:47:00,72.9,60.0,30.13,West,261,9.2,9.2,64,0.00,CLR,,0.00,285.0,WeatherDisplay:10.37,2013-11-01 12:47:00,
2013-11-01 13:48:00,72.7,60.3,30.13,SW,229,12.7,12.7,65,0.00,CLR,,0.00,262.0,WeatherDisplay:10.37,2013-11-01 12:48:00,
2013-11-01 13:49:00,72.7,60.3,30.13,WSW,242,12.7,12.7,65,0.00,CLR,,0.00,246.0,WeatherDisplay:10.37,2013-11-01 12:49:00,
2013-11-01 13:51:00,72.3,59.9,30.13,SW,235,11.5,11.5,65,0.00,CLR,,0.00,257.0,WeatherDisplay:10.37,2013-11-01 12:51:00,
2013-11-01 13:52:00,72.3,60.3,30.13,SW,233,9.2,9.2,66,0.00,FEW,,0.00,250.0,WeatherDisplay:10.37,2013-11-01 12:52:00,
2013-11-01 13:54:00,72.1,59.7,30.13,West,261,8.1,8.1,65,0.00,FEW,,0.00,234.0,WeatherDisplay:10.37,2013-11-01 12:54:00,
2013-11-01 13:55:00,72.0,60.0,30.13,WSW,244,12.0,12.0,66,0.00,FEW,,0.00,229.0,WeatherDisplay:10.37,2013-11-01 12:55:00,
2013-11-01 13:57:00,71.8,59.8,30.13,SSW,211,11.5,11.5,66,0.00,FEW,,0.00,232.0,WeatherDisplay:10.37,2013-11-01 12:57:00,
2013-11-01 13:59:00,71.6,59.6,30.13,SW,235,11.5,11.5,66,0.00,FEW,,0.00,248.0,WeatherDisplay:10.37,2013-11-01 12:59:00,
2013-11-01 14:01:00,71.5,59.5,30.13,SW,234,11.5,11.5,66,0.00,FEW,,0.00,278.0,WeatherDisplay:10.37,2013-11-01 13:01:00,
2013-11-01 14:02:00,71.5,59.5,30.13,SW,234,11.5,11.5,66,0.00,FEW,,0.00,283.0,WeatherDisplay:10.37,2013-11-01 13:02:00,
2013-11-01 14:04:00,71.4,59.4,30.13,WSW,250,9.2,9.2,66,0.00,FEW,,0.00,258.0,WeatherDisplay:10.37,2013-11-01 13:04:00,
2013-11-01 14:05:00,71.4,59.4,30.13,WSW,242,11.5,11.5,66,0.00,FEW,,0.00,264.0,WeatherDisplay:10.37,2013-11-01 13:05:00,
2013-11-01 14:06:00,71.4,59.4,30.13,West,262,11.5,11.5,66,0.00,FEW,,0.00,260.0,WeatherDisplay:10.37,2013-11-01 13:06:00,
2013-11-01 14:07:00,71.2,59.3,30.13,WSW,252,11.5,11.5,66,0.00,FEW,,0.00,260.0,WeatherDisplay:10.37,2013-11-01 13:07:00,
2013-11-01 14:10:00,71.2,59.3,30.13,SSW,209,8.1,8.1,66,0.00,FEW,,0.00,257.0,WeatherDisplay:10.37,2013-11-01 13:10:00,
2013-11-01 14:11:00,71.2,59.3,30.13,SW,222,6.0,6.0,66,0.00,FEW,,0.00,190.0,WeatherDisplay:10.37,2013-11-01 13:11:00,
2013-11-01 14:12:00,71.2,59.3,30.13,West,265,8.1,8.1,66,0.00,FEW,,0.00,137.0,WeatherDisplay:10.37,2013-11-01 13:12:00,
2013-11-01 14:13:00,71.2,59.3,30.13,WSW,256,8.1,8.1,66,0.00,FEW,,0.00,132.0,WeatherDisplay:10.37,2013-11-01 13:13:00,
2013-11-01 14:15:00,71.2,59.3,30.13,WNW,286,6.9,6.9,66,0.00,FEW,,0.00,130.0,WeatherDisplay:10.37,2013-11-01 13:15:00,
2013-11-01 14:16:00,71.2,58.8,30.13,SW,221,6.0,6.0,65,0.00,FEW,,0.00,130.0,WeatherDisplay:10.37,2013-11-01 13:16:00,
2013-11-01 14:17:00,71.2,59.3,30.13,SW,236,6.0,6.0,66,0.00,FEW,,0.00,144.0,WeatherDisplay:10.37,2013-11-01 13:17:00,
2013-11-01 14:18:00,71.2,59.3,30.13,WSW,251,5.8,6.6,66,0.00,FEW,,0.00,148.0,WeatherDisplay:10.37,2013-11-01 13:18:00,
2013-11-01 14:19:00,71.2,58.8,30.13,WSW,238,9.2,9.2,65,0.00,FEW,,0.00,148.0,WeatherDisplay:10.37,2013-11-01 13:19:00,
2013-11-01 14:20:00,71.0,58.6,30.13,WSW,246,8.1,8.1,65,0.00,FEW,,0.00,209.0,WeatherDisplay:10.37,2013-11-01 13:20:00,
2013-11-01 14:22:00,71.0,58.6,30.13,WSW,248,7.0,7.0,65,0.00,FEW,,0.00,248.0,WeatherDisplay:10.37,2013-11-01 13:22:00,
2013-11-01 14:23:00,71.0,58.6,30.13,WSW,237,10.4,10.4,65,0.00,FEW,,0.00,176.0,WeatherDisplay:10.37,2013-11-01 13:23:00,
2013-11-01 14:24:00,70.9,58.5,30.13,SW,234,10.4,10.4,65,0.00,FEW,,0.00,171.0,WeatherDisplay:10.37,2013-11-01 13:24:00,
2013-11-01 14:25:00,70.8,58.4,30.13,WSW,245,10.4,10.4,65,0.00,FEW,,0.00,162.0,WeatherDisplay:10.37,2013-11-01 13:25:00,
2013-11-01 14:27:00,70.8,58.9,30.13,WSW,246,8.0,8.0,66,0.00,FEW,,0.00,158.0,WeatherDisplay:10.37,2013-11-01 13:27:00,
2013-11-01 14:29:00,70.8,58.9,30.13,WSW,248,8.1,8.1,66,0.00,FEW,,0.00,156.0,WeatherDisplay:10.37,2013-11-01 13:29:00,
2013-11-01 14:30:00,70.8,58.9,30.13,West,267,6.9,6.9,66,0.00,FEW,,0.00,156.0,WeatherDisplay:10.37,2013-11-01 13:30:00,
2013-11-01 14:31:00,70.7,58.8,30.13,SW,232,6.9,6.9,66,0.00,FEW,,0.00,156.0,WeatherDisplay:10.37,2013-11-01 13:31:00,
2013-11-01 14:33:00,70.8,58.9,30.13,SSW,200,6.9,6.9,66,0.00,FEW,,0.00,158.0,WeatherDisplay:10.37,2013-11-01 13:33:00,
2013-11-01 14:34:00,70.8,58.9,30.13,SW,234,8.1,8.1,66,0.00,FEW,,0.00,162.0,WeatherDisplay:10.37,2013-11-01 13:34:00,
2013-11-01 14:35:00,70.8,58.9,30.13,SW,229,8.1,8.1,66,0.00,FEW,,0.00,167.0,WeatherDisplay:10.37,2013-11-01 13:35:00,
2013-11-01 14:36:00,70.7,58.8,30.13,SW,229,8.1,8.1,66,0.00,FEW,,0.00,178.0,WeatherDisplay:10.37,2013-11-01 13:36:00,
2013-11-01 14:39:00,70.6,59.1,30.13,WSW,238,6.9,6.9,67,0.00,FEW,,0.00,162.0,WeatherDisplay:10.37,2013-11-01 13:39:00,
2013-11-01 14:40:00,70.6,59.1,30.13,WSW,246,6.9,6.9,67,0.00,FEW,,0.00,155.0,WeatherDisplay:10.37,2013-11-01 13:40:00,
2013-11-01 14:41:00,70.6,59.1,30.13,SW,227,6.9,6.9,67,0.00,FEW,,0.00,149.0,WeatherDisplay:10.37,2013-11-01 13:41:00,
2013-11-01 14:44:00,70.5,59.0,30.13,SSW,201,6.9,6.9,67,0.00,FEW,,0.00,137.0,WeatherDisplay:10.37,2013-11-01 13:44:00,
2013-11-01 14:45:00,70.5,59.0,30.13,SW,231,6.9,6.9,67,0.00,FEW,,0.00,137.0,WeatherDisplay:10.37,2013-11-01 13:45:00,
2013-11-01 14:46:00,70.5,59.0,30.13,WSW,250,5.8,5.8,67,0.00,FEW,,0.00,135.0,WeatherDisplay:10.37,2013-11-01 13:46:00,
2013-11-01 14:50:00,70.5,59.0,30.13,WSW,254,5.8,5.8,67,0.00,FEW,,0.00,134.0,WeatherDisplay:10.37,2013-11-01 13:50:00,
2013-11-01 14:51:00,70.5,59.0,30.13,WSW,254,6.9,6.9,67,0.00,FEW,,0.00,130.0,WeatherDisplay:10.37,2013-11-01 13:51:00,
2013-11-01 14:52:00,70.5,59.0,30.13,SW,234,4.6,4.6,67,0.00,FEW,,0.00,128.0,WeatherDisplay:10.37,2013-11-01 13:52:00,
2013-11-01 14:55:00,70.5,59.0,30.13,SSW,205,5.8,5.8,67,0.00,FEW,,0.00,123.0,WeatherDisplay:10.37,2013-11-01 13:55:00,
2013-11-01 14:56:00,70.6,59.1,30.13,WSW,254,6.9,6.9,67,0.00,FEW,,0.00,114.0,WeatherDisplay:10.37,2013-11-01 13:56:00,
2013-11-01 14:59:00,70.6,59.1,30.13,SW,225,3.5,3.5,67,0.00,FEW,,0.00,107.0,WeatherDisplay:10.37,2013-11-01 13:59:00,
2013-11-01 15:00:00,70.6,59.1,30.13,SSW,211,6.0,6.0,67,0.00,FEW,,0.00,95.0,WeatherDisplay:10.37,2013-11-01 14:00:00,
2013-11-01 15:01:00,70.6,59.1,30.13,SSW,205,5.8,5.8,67,0.00,FEW,,0.00,95.0,WeatherDisplay:10.37,2013-11-01 14:01:00,
2013-11-01 15:02:00,70.6,58.7,30.13,SSW,210,6.0,6.0,66,0.00,FEW,,0.00,90.0,WeatherDisplay:10.37,2013-11-01 14:02:00,
2013-11-01 15:05:00,70.6,58.7,30.13,SSW,213,5.8,5.8,66,0.00,FEW,,0.00,84.0,WeatherDisplay:10.37,2013-11-01 14:05:00,
2013-11-01 15:06:00,70.6,58.7,30.13,SW,221,5.8,5.8,66,0.00,FEW,,0.00,84.0,WeatherDisplay:10.37,2013-11-01 14:06:00,
2013-11-01 15:07:00,70.6,58.7,30.13,SW,225,4.6,4.6,66,0.00,SCT,,0.00,81.0,WeatherDisplay:10.37,2013-11-01 14:07:00,
2013-11-01 15:10:00,70.6,58.7,30.13,SSW,205,5.8,5.8,66,0.00,SCT,,0.00,79.0,WeatherDisplay:10.37,2013-11-01 14:10:00,
2013-11-01 15:11:00,70.6,58.7,30.13,SSW,209,5.8,5.8,66,0.00,SCT,,0.00,77.0,WeatherDisplay:10.37,2013-11-01 14:11:00,
2013-11-01 15:12:00,70.6,58.7,30.13,SW,215,5.8,5.8,66,0.00,SCT,,0.00,77.0,WeatherDisplay:10.37,2013-11-01 14:12:00,
2013-11-01 15:13:00,70.6,58.7,30.13,SSW,205,4.6,4.6,66,0.00,SCT,,0.00,77.0,WeatherDisplay:10.37,2013-11-01 14:13:00,
2013-11-01 15:15:00,70.5,59.0,30.13,South,187,4.0,4.0,67,0.00,SCT,,0.00,77.0,WeatherDisplay:10.37,2013-11-01 14:15:00,
2013-11-01 15:16:00,70.6,59.1,30.13,South,175,4.6,4.6,67,0.00,SCT,,0.00,77.0,WeatherDisplay:10.37,2013-11-01 14:16:00,
2013-11-01 15:17:00,70.5,59.0,30.13,South,188,4.6,4.6,67,0.00,SCT,,0.00,77.0,WeatherDisplay:10.37,2013-11-01 14:17:00,
2013-11-01 15:20:00,70.5,59.0,30.13,South,182,5.8,5.8,67,0.00,SCT,,0.00,77.0,WeatherDisplay:10.37,2013-11-01 14:20:00,
2013-11-01 15:22:00,70.5,59.0,30.13,South,180,4.6,4.6,67,0.00,SCT,,0.00,77.0,WeatherDisplay:10.37,2013-11-01 14:22:00,
2013-11-01 15:23:00,70.5,59.0,30.13,South,187,3.5,3.6,67,0.00,SCT,,0.00,77.0,WeatherDisplay:10.37,2013-11-01 14:23:00,
2013-11-01 15:25:00,70.5,59.0,30.13,South,178,4.0,4.0,67,0.00,SCT,,0.00,77.0,WeatherDisplay:10.37,2013-11-01 14:25:00,
2013-11-01 15:27:00,70.5,59.0,30.13,SSW,194,4.6,4.6,67,0.00,SCT,,0.00,76.0,WeatherDisplay:10.37,2013-11-01 14:27:00,
2013-11-01 15:28:00,70.4,58.9,30.13,South,178,3.5,3.5,67,0.00,SCT,,0.00,72.0,WeatherDisplay:10.37,2013-11-01 14:28:00,
2013-11-01 15:31:00,70.3,58.8,30.13,South,174,5.8,5.8,67,0.00,SCT,,0.00,63.0,WeatherDisplay:10.37,2013-11-01 14:31:00,
2013-11-01 15:32:00,70.3,58.8,30.13,South,177,3.5,3.5,67,0.00,SCT,,0.00,56.0,WeatherDisplay:10.37,2013-11-01 14:32:00,
2013-11-01 15:33:00,70.3,58.8,30.13,SSE,160,3.5,3.5,67,0.00,SCT,,0.00,56.0,WeatherDisplay:10.37,2013-11-01 14:33:00,
2013-11-01 15:34:00,70.3,58.8,30.13,South,182,3.0,3.0,67,0.00,SCT,,0.00,56.0,WeatherDisplay:10.37,2013-11-01 14:34:00,
2013-11-01 15:36:00,70.2,58.7,30.13,South,177,3.5,3.5,67,0.00,SCT,,0.00,62.0,WeatherDisplay:10.37,2013-11-01 14:36:00,
2013-11-01 15:38:00,70.2,59.1,30.13,SSW,209,0.0,0.0,68,0.00,SCT,,0.00,60.0,WeatherDisplay:10.37,2013-11-01 14:38:00,
2013-11-01 15:39:00,70.2,58.7,30.13,SSW,202,0.0,0.0,67,0.00,SCT,,0.00,56.0,WeatherDisplay:10.37,2013-11-01 14:39:00,
2013-11-01 15:41:00,70.1,58.6,30.13,SSW,208,0.0,0.0,67,0.00,SCT,,0.00,54.0,WeatherDisplay:10.37,2013-11-01 14:41:00,
2013-11-01 15:43:00,70.1,58.6,30.13,SSW,209,0.0,0.0,67,0.00,SCT,,0.00,54.0,WeatherDisplay:10.37,2013-11-01 14:43:00,
2013-11-01 15:44:00,70.1,58.6,30.13,SSW,208,0.0,0.0,67,0.00,SCT,,0.00,54.0,WeatherDisplay:10.37,2013-11-01 14:44:00,
2013-11-01 15:46:00,70.0,58.5,30.13,SSW,213,0.0,0.0,67,0.00,SCT,,0.00,53.0,WeatherDisplay:10.37,2013-11-01 14:46:00,
2013-11-01 15:48:00,70.1,58.6,30.13,SSW,202,0.0,0.0,67,0.00,SCT,,0.00,51.0,WeatherDisplay:10.37,2013-11-01 14:48:00,
2013-11-01 15:49:00,70.0,58.5,30.13,SSW,205,0.0,0.0,67,0.00,SCT,,0.00,49.0,WeatherDisplay:10.37,2013-11-01 14:49:00,
2013-11-01 15:50:00,70.0,58.5,30.13,SSW,205,0.0,0.0,67,0.00,SCT,,0.00,49.0,WeatherDisplay:10.37,2013-11-01 14:50:00,
2013-11-01 15:51:00,70.0,58.5,30.13,SSW,205,0.0,0.0,67,0.00,SCT,,0.00,47.0,WeatherDisplay:10.37,2013-11-01 14:51:00,
2013-11-01 15:53:00,70.0,58.5,30.13,SSW,193,0.0,0.0,67,0.00,SCT,,0.00,47.0,WeatherDisplay:10.37,2013-11-01 14:53:00,
2013-11-01 15:55:00,70.0,58.5,30.13,SSW,193,0.0,0.0,67,0.00,SCT,,0.00,47.0,WeatherDisplay:10.37,2013-11-01 14:55:00,
2013-11-01 15:56:00,70.0,58.5,30.13,SSW,193,0.0,0.0,67,0.00,SCT,,0.00,46.0,WeatherDisplay:10.37,2013-11-01 14:56:00,
2013-11-01 15:58:00,70.0,58.5,30.13,SSW,193,0.0,0.0,67,0.00,SCT,,0.00,46.0,WeatherDisplay:10.37,2013-11-01 14:58:00,
2013-11-01 16:00:00,70.0,58.5,30.13,SSW,193,0.0,0.0,67,0.00,SCT,,0.00,46.0,WeatherDisplay:10.37,2013-11-01 15:00:00,
2013-11-01 16:02:00,69.9,58.4,30.13,SSW,192,0.0,0.0,67,0.00,SCT,,0.00,44.0,WeatherDisplay:10.37,2013-11-01 15:02:00,
2013-11-01 16:03:00,69.9,58.4,30.13,SSW,192,0.0,0.0,67,0.00,SCT,,0.00,44.0,WeatherDisplay:10.37,2013-11-01 15:03:00,
2013-11-01 16:04:00,69.9,58.4,30.13,SSW,192,0.0,0.0,67,0.00,SCT,,0.00,44.0,WeatherDisplay:10.37,2013-11-01 15:04:00,
2013-11-01 16:05:00,69.9,58.4,30.13,SSW,192,0.0,0.0,67,0.00,SCT,,0.00,44.0,WeatherDisplay:10.37,2013-11-01 15:05:00,
2013-11-01 16:06:00,69.8,57.9,30.13,SSW,192,0.0,0.0,66,0.00,SCT,,0.00,44.0,WeatherDisplay:10.37,2013-11-01 15:06:00,
2013-11-01 16:07:00,69.8,57.9,30.13,SSW,192,0.0,0.0,66,0.00,SCT,,0.00,44.0,WeatherDisplay:10.37,2013-11-01 15:07:00,
2013-11-01 16:09:00,69.8,57.9,30.13,SSW,192,0.0,0.0,66,0.00,SCT,,0.00,44.0,WeatherDisplay:10.37,2013-11-01 15:09:00,
2013-11-01 16:11:00,69.7,57.8,30.13,South,190,0.0,0.0,66,0.00,SCT,,0.00,42.0,WeatherDisplay:10.37,2013-11-01 15:11:00,
2013-11-01 16:13:00,69.7,57.8,30.13,South,190,0.0,0.0,66,0.00,SCT,,0.00,40.0,WeatherDisplay:10.37,2013-11-01 15:13:00,
2013-11-01 16:14:00,69.7,57.8,30.13,South,190,0.0,0.0,66,0.00,SCT,,0.00,40.0,WeatherDisplay:10.37,2013-11-01 15:14:00,
2013-11-01 16:16:00,69.7,57.4,30.13,South,190,0.0,0.0,65,0.00,SCT,,0.00,39.0,WeatherDisplay:10.37,2013-11-01 15:16:00,
2013-11-01 16:19:00,69.6,57.3,30.13,South,190,0.0,0.0,65,0.00,SCT,,0.00,39.0,WeatherDisplay:10.37,2013-11-01 15:19:00,
2013-11-01 16:20:00,69.6,57.3,30.13,South,190,0.0,0.0,65,0.00,SCT,,0.00,37.0,WeatherDisplay:10.37,2013-11-01 15:20:00,
2013-11-01 16:21:00,69.6,57.3,30.13,South,190,0.0,0.0,65,0.00,SCT,,0.00,37.0,WeatherDisplay:10.37,2013-11-01 15:21:00,
2013-11-01 16:22:00,69.6,57.3,30.13,South,190,0.0,0.0,65,0.00,SCT,,0.00,37.0,WeatherDisplay:10.37,2013-11-01 15:22:00,
2013-11-01 16:24:00,69.6,57.7,30.13,South,190,0.0,0.0,66,0.00,SCT,,0.00,35.0,WeatherDisplay:10.37,2013-11-01 15:24:00,
2013-11-01 16:25:00,69.6,57.7,30.13,South,190,0.0,0.0,66,0.00,SCT,,0.00,35.0,WeatherDisplay:10.37,2013-11-01 15:25:00,
2013-11-01 16:26:00,69.6,57.7,30.13,South,190,0.0,0.0,66,0.00,SCT,,0.00,35.0,WeatherDisplay:10.37,2013-11-01 15:26:00,
2013-11-01 16:27:00,69.6,57.7,30.13,South,190,0.0,0.0,66,0.00,SCT,,0.00,35.0,WeatherDisplay:10.37,2013-11-01 15:27:00,
2013-11-01 16:30:00,69.6,57.7,30.13,South,190,0.0,0.0,66,0.00,SCT,,0.00,32.0,WeatherDisplay:10.37,2013-11-01 15:30:00,
2013-11-01 16:32:00,69.6,57.7,30.13,South,190,0.0,0.0,66,0.00,SCT,,0.00,28.0,WeatherDisplay:10.37,2013-11-01 15:32:00,
2013-11-01 16:33:00,69.6,57.7,30.12,South,190,0.0,0.0,66,0.00,SCT,,0.00,28.0,WeatherDisplay:10.37,2013-11-01 15:33:00,
2013-11-01 16:35:00,69.6,57.7,30.13,South,190,0.0,0.0,66,0.00,SCT,,0.00,26.0,WeatherDisplay:10.37,2013-11-01 15:35:00,
2013-11-01 16:37:00,69.6,57.7,30.13,South,190,0.0,0.0,66,0.00,SCT,,0.00,25.0,WeatherDisplay:10.37,2013-11-01 15:37:00,
2013-11-01 16:38:00,69.6,57.7,30.13,South,189,0.0,0.0,66,0.00,SCT,,0.00,25.0,WeatherDisplay:10.37,2013-11-01 15:38:00,
2013-11-01 16:40:00,69.6,57.7,30.13,South,189,0.0,0.0,66,0.00,SCT,,0.00,23.0,WeatherDisplay:10.37,2013-11-01 15:40:00,
2013-11-01 16:41:00,69.6,57.7,30.13,South,186,0.0,0.0,66,0.00,SCT,,0.00,23.0,WeatherDisplay:10.37,2013-11-01 15:41:00,
2013-11-01 16:42:00,69.6,57.7,30.13,South,186,0.0,0.0,66,0.00,SCT,,0.00,21.0,WeatherDisplay:10.37,2013-11-01 15:42:00,
2013-11-01 16:43:00,69.5,57.6,30.13,South,186,0.0,0.0,66,0.00,SCT,,0.00,19.0,WeatherDisplay:10.37,2013-11-01 15:43:00,
2013-11-01 16:45:00,69.5,57.6,30.13,South,186,0.0,0.0,66,0.00,SCT,,0.00,19.0,WeatherDisplay:10.37,2013-11-01 15:45:00,
2013-11-01 16:47:00,69.5,57.6,30.13,South,186,0.0,0.0,66,0.00,SCT,,0.00,18.0,WeatherDisplay:10.37,2013-11-01 15:47:00,
2013-11-01 16:48:00,69.5,57.6,30.13,South,186,0.0,0.0,66,0.00,SCT,,0.00,18.0,WeatherDisplay:10.37,2013-11-01 15:48:00,
2013-11-01 16:49:00,69.4,57.5,30.13,South,186,0.0,0.0,66,0.00,SCT,,0.00,16.0,WeatherDisplay:10.37,2013-11-01 15:49:00,
2013-11-01 16:51:00,69.4,57.5,30.13,South,186,0.0,0.0,66,0.00,SCT,,0.00,14.0,WeatherDisplay:10.37,2013-11-01 15:51:00,
2013-11-01 16:53:00,69.4,57.5,30.13,South,186,0.0,0.0,66,0.00,SCT,,0.00,12.0,WeatherDisplay:10.37,2013-11-01 15:53:00,
2013-11-01 16:54:00,69.4,57.5,30.13,South,186,0.0,0.0,66,0.00,SCT,,0.00,12.0,WeatherDisplay:10.37,2013-11-01 15:54:00,
2013-11-01 16:55:00,69.4,57.5,30.13,South,186,0.0,0.0,66,0.00,SCT,,0.00,12.0,WeatherDisplay:10.37,2013-11-01 15:55:00,
2013-11-01 16:56:00,69.4,57.5,30.13,South,186,0.0,0.0,66,0.00,SCT,,0.00,12.0,WeatherDisplay:10.37,2013-11-01 15:56:00,
2013-11-01 16:58:00,69.4,57.5,30.13,South,186,0.0,0.0,66,0.00,SCT,,0.00,11.0,WeatherDisplay:10.37,2013-11-01 15:58:00,
2013-11-01 16:59:00,69.4,57.5,30.13,South,186,0.0,0.0,66,0.00,SCT,,0.00,7.0,WeatherDisplay:10.37,2013-11-01 15:59:00,
2013-11-01 17:00:00,69.4,57.5,30.13,South,186,0.0,0.0,66,0.00,SCT,,0.00,7.0,WeatherDisplay:10.37,2013-11-01 16:00:00,
2013-11-01 17:01:00,69.3,57.5,30.13,South,186,0.0,0.0,66,0.00,SCT,,0.00,5.0,WeatherDisplay:10.37,2013-11-01 16:01:00,
2013-11-01 17:03:00,69.3,57.5,30.13,SSE,160,0.0,0.0,66,0.00,SCT,,0.00,0.0,WeatherDisplay:10.37,2013-11-01 16:03:00,
2013-11-01 17:04:00,69.3,57.5,30.13,SSE,147,0.0,0.0,66,0.00,SCT,,0.00,0.0,WeatherDisplay:10.37,2013-11-01 16:04:00,
2013-11-01 17:05:00,69.2,57.4,30.13,SE,146,0.0,0.0,66,0.00,SCT,,0.00,0.0,WeatherDisplay:10.37,2013-11-01 16:05:00,
2013-11-01 17:06:00,69.2,57.4,30.13,SE,146,1.2,1.2,66,0.00,SCT,,0.00,0.0,WeatherDisplay:10.37,2013-11-01 16:06:00,
2013-11-01 17:07:00,69.2,57.8,30.13,SE,145,1.2,0.0,67,0.00,SCT,,0.00,0.0,WeatherDisplay:10.37,2013-11-01 16:07:00,
2013-11-01 17:09:00,69.2,57.8,30.13,SE,136,0.0,0.0,67,0.00,SCT,,0.00,0.0,WeatherDisplay:10.37,2013-11-01 16:09:00,
2013-11-01 17:10:00,69.1,57.7,30.13,SE,136,0.0,0.0,67,0.00,SCT,,0.00,0.0,WeatherDisplay:10.37,2013-11-01 16:10:00,
2013-11-01 17:11:00,69.1,57.7,30.13,SE,134,0.0,0.0,67,0.00,SCT,,0.00,0.0,WeatherDisplay:10.37,2013-11-01 16:11:00,
2013-11-01 17:12:00,69.1,58.1,30.13,SE,133,0.0,0.0,68,0.00,SCT,,0.00,0.0,WeatherDisplay:10.37,2013-11-01 16:12:00,
2013-11-01 17:14:00,69.0,58.0,30.13,SE,133,0.0,0.0,68,0.00,SCT,,0.00,0.0,WeatherDisplay:10.37,2013-11-01 16:14:00,
2013-11-01 17:16:00,69.0,58.0,30.13,SE,133,0.0,0.0,68,0.00,SCT,,0.00,0.0,WeatherDisplay:10.37,2013-11-01 16:16:00,
2013-11-01 17:17:00,68.9,57.9,30.13,SE,133,0.0,0.0,68,0.00,SCT,,0.00,0.0,WeatherDisplay:10.37,2013-11-01 16:17:00,
2013-11-01 17:19:00,68.9,57.9,30.13,SE,133,0.0,0.0,68,0.00,SCT,,0.00,0.0,WeatherDisplay:10.37,2013-11-01 16:19:00,
2013-11-01 17:21:00,68.9,58.3,30.13,SE,133,0.0,0.0,69,0.00,SCT,,0.00,0.0,WeatherDisplay:10.37,2013-11-01 16:21:00,
2013-11-01 17:22:00,68.8,58.2,30.13,SE,133,0.0,0.0,69,0.00,SCT,,0.00,0.0,WeatherDisplay:10.37,2013-11-01 16:22:00,
2013-11-01 17:24:00,68.8,58.6,30.13,SE,133,0.0,0.0,70,0.00,SCT,,0.00,0.0,WeatherDisplay:10.37,2013-11-01 16:24:00,
2013-11-01 17:25:00,68.7,58.5,30.13,SE,133,0.0,0.0,70,0.00,SCT,,0.00,0.0,WeatherDisplay:10.37,2013-11-01 16:25:00,
2013-11-01 17:27:00,68.7,58.5,30.13,SE,133,0.0,0.0,70,0.00,SCT,,0.00,0.0,WeatherDisplay:10.37,2013-11-01 16:27:00,
2013-11-01 17:28:00,68.7,58.5,30.13,SE,133,0.0,0.0,70,0.00,SCT,,0.00,0.0,WeatherDisplay:10.37,2013-11-01 16:28:00,
2013-11-01 17:29:00,68.6,58.8,30.13,SE,133,0.0,0.0,71,0.00,SCT,,0.00,0.0,WeatherDisplay:10.37,2013-11-01 16:29:00,
2013-11-01 17:30:00,68.5,58.7,30.13,SE,133,0.0,0.0,71,0.00,SCT,,0.00,0.0,WeatherDisplay:10.37,2013-11-01 16:30:00,
2013-11-01 17:32:00,68.5,58.7,30.13,SE,132,0.0,0.0,71,0.00,SCT,,0.00,0.0,WeatherDisplay:10.37,2013-11-01 16:32:00,
2013-11-01 17:33:00,68.4,59.0,30.13,East,93,0.0,0.0,72,0.00,SCT,,0.00,0.0,WeatherDisplay:10.37,2013-11-01 16:33:00,
2013-11-01 17:34:00,68.3,58.9,30.13,East,93,0.0,0.0,72,0.00,SCT,,0.00,0.0,WeatherDisplay:10.37,2013-11-01 16:34:00,
2013-11-01 17:35:00,68.2,58.8,30.13,ENE,68,2.3,2.3,72,0.00,SCT,,0.00,0.0,WeatherDisplay:10.37,2013-11-01 16:35:00,
2013-11-01 17:37:00,68.1,58.7,30.13,ENE,67,3.5,3.5,72,0.00,SCT,,0.00,0.0,WeatherDisplay:10.37,2013-11-01 16:37:00,
2013-11-01 17:38:00,68.0,58.6,30.13,ENE,65,3.5,3.5,72,0.00,SCT,,0.00,0.0,WeatherDisplay:10.37,2013-11-01 16:38:00,
2013-11-01 17:40:00,67.9,58.9,30.13,ENE,65,3.5,3.5,73,0.00,SCT,,0.00,0.0,WeatherDisplay:10.37,2013-11-01 16:40:00,
2013-11-01 17:42:00,67.7,58.7,30.13,ENE,65,3.5,3.5,73,0.00,SCT,,0.00,0.0,WeatherDisplay:10.37,2013-11-01 16:42:00,
2013-11-01 17:43:00,67.5,58.5,30.13,ENE,65,1.2,1.2,73,0.00,SCT,,0.00,0.0,WeatherDisplay:10.37,2013-11-01 16:43:00,
2013-11-01 17:44:00,67.5,58.5,30.13,ENE,65,1.2,0.0,73,0.00,SCT,,0.00,0.0,WeatherDisplay:10.37,2013-11-01 16:44:00,
2013-11-01 17:45:00,67.4,58.4,30.13,ENE,65,0.0,0.0,73,0.00,SCT,,0.00,0.0,WeatherDisplay:10.37,2013-11-01 16:45:00,
2013-11-01 17:47:00,67.3,58.3,30.13,ENE,65,0.0,0.0,73,0.00,SCT,,0.00,0.0,WeatherDisplay:10.37,2013-11-01 16:47:00,
2013-11-01 17:48:00,67.2,58.2,30.13,ENE,65,0.0,0.0,73,0.00,SCT,,0.00,0.0,WeatherDisplay:10.37,2013-11-01 16:48:00,
2013-11-01 17:50:00,67.1,58.5,30.14,ENE,65,0.0,0.0,74,0.00,SCT,,0.00,0.0,WeatherDisplay:10.37,2013-11-01 16:50:00,
2013-11-01 17:51:00,67.0,58.4,30.13,ENE,65,0.0,0.0,74,0.00,SCT,,0.00,0.0,WeatherDisplay:10.37,2013-11-01 16:51:00,
2013-11-01 17:52:00,66.9,58.3,30.13,ENE,65,0.0,0.0,74,0.00,SCT,,0.00,0.0,WeatherDisplay:10.37,2013-11-01 16:52:00,
2013-11-01 17:53:00,66.9,58.3,30.13,ENE,65,0.0,0.0,74,0.00,SCT,,0.00,0.0,WeatherDisplay:10.37,2013-11-01 16:53:00,
2013-11-01 17:55:00,66.9,58.3,30.14,ENE,65,0.0,0.0,74,0.00,SCT,,0.00,0.0,WeatherDisplay:10.37,2013-11-01 16:55:00,
2013-11-01 17:57:00,66.8,58.2,30.13,ENE,65,0.0,0.0,74,0.00,SCT,,0.00,0.0,WeatherDisplay:10.37,2013-11-01 16:57:00,
2013-11-01 18:00:00,66.6,58.1,30.13,ENE,65,0.0,0.0,74,0.00,SCT,,0.00,0.0,WeatherDisplay:10.37,2013-11-01 17:00:00,
2013-11-01 18:01:00,66.6,58.1,30.13,ENE,65,0.0,0.0,74,0.00,SCT,,0.00,0.0,WeatherDisplay:10.37,2013-11-01 17:01:00,
2013-11-01 18:02:00,66.6,58.1,30.13,ENE,65,0.0,0.0,74,0.00,SCT,,0.00,0.0,WeatherDisplay:10.37,2013-11-01 17:02:00,
2013-11-01 18:03:00,66.5,58.0,30.13,ENE,65,0.0,0.0,74,0.00,SCT,,0.00,0.0,WeatherDisplay:10.37,2013-11-01 17:03:00,
2013-11-01 18:05:00,66.5,58.0,30.13,ENE,65,0.0,0.0,74,0.00,SCT,,0.00,0.0,WeatherDisplay:10.37,2013-11-01 17:05:00,
2013-11-01 18:06:00,66.4,57.9,30.14,ENE,65,0.0,0.0,74,0.00,SCT,,0.00,0.0,WeatherDisplay:10.37,2013-11-01 17:06:00,
2013-11-01 18:07:00,66.4,57.9,30.14,ENE,65,0.0,0.0,74,0.00,SCT,,0.00,0.0,WeatherDisplay:10.37,2013-11-01 17:07:00,
2013-11-01 18:09:00,66.4,58.2,30.14,ENE,65,0.0,0.0,75,0.00,SCT,,0.00,0.0,WeatherDisplay:10.37,2013-11-01 17:09:00,
2013-11-01 18:11:00,66.3,58.1,30.13,ENE,65,0.0,0.0,75,0.00,SCT,,0.00,0.0,WeatherDisplay:10.37,2013-11-01 17:11:00,
2013-11-01 18:12:00,66.3,58.1,30.14,ENE,65,0.0,0.0,75,0.00,SCT,,0.00,0.0,WeatherDisplay:10.37,2013-11-01 17:12:00,
2013-11-01 18:14:00,66.2,58.0,30.14,ENE,65,0.0,0.0,75,0.00,SCT,,0.00,0.0,WeatherDisplay:10.37,2013-11-01 17:14:00,
2013-11-01 18:16:00,66.2,58.0,30.14,ENE,65,0.0,0.0,75,0.00,SCT,,0.00,0.0,WeatherDisplay:10.37,2013-11-01 17:16:00,
2013-11-01 18:17:00,66.2,58.0,30.14,ENE,65,0.0,0.0,75,0.00,SCT,,0.00,0.0,WeatherDisplay:10.37,2013-11-01 17:17:00,
2013-11-01 18:18:00,66.1,57.9,30.14,ENE,65,0.0,0.0,75,0.00,SCT,,0.00,0.0,WeatherDisplay:10.37,2013-11-01 17:18:00,
2013-11-01 18:19:00,66.0,57.8,30.14,ENE,65,0.0,0.0,75,0.00,SCT,,0.00,0.0,WeatherDisplay:10.37,2013-11-01 17:19:00,
2013-11-01 18:21:00,66.0,57.8,30.14,ENE,65,0.0,0.0,75,0.00,SCT,,0.00,0.0,WeatherDisplay:10.37,2013-11-01 17:21:00,
2013-11-01 18:22:00,66.0,57.8,30.14,ENE,65,0.0,0.0,75,0.00,SCT,,0.00,0.0,WeatherDisplay:10.37,2013-11-01 17:22:00,
2013-11-01 18:23:00,66.0,57.8,30.14,ENE,65,0.0,0.0,75,0.00,SCT,,0.00,0.0,WeatherDisplay:10.37,2013-11-01 17:23:00,
2013-11-01 18:24:00,65.9,57.7,30.14,ENE,65,0.0,0.0,75,0.00,SCT,,0.00,0.0,WeatherDisplay:10.37,2013-11-01 17:24:00,
2013-11-01 18:25:00,65.9,57.7,30.14,ENE,65,0.0,0.0,75,0.00,SCT,,0.00,0.0,WeatherDisplay:10.37,2013-11-01 17:25:00,
2013-11-01 18:26:00,65.9,57.7,30.14,ENE,65,0.0,0.0,75,0.00,SCT,,0.00,0.0,WeatherDisplay:10.37,2013-11-01 17:26:00,
2013-11-01 18:27:00,65.9,57.7,30.14,ENE,65,0.0,0.0,75,0.00,SCT,,0.00,0.0,WeatherDisplay:10.37,2013-11-01 17:27:00,
2013-11-01 18:28:00,65.8,57.7,30.14,ENE,65,0.0,0.0,75,0.00,SCT,,0.00,0.0,WeatherDisplay:10.37,2013-11-01 17:28:00,
2013-11-01 18:29:00,65.8,57.7,30.14,ENE,65,0.0,0.0,75,0.00,SCT,,0.00,0.0,WeatherDisplay:10.37,2013-11-01 17:29:00,
2013-11-01 18:30:00,65.8,57.7,30.14,ENE,65,0.0,0.0,75,0.00,SCT,,0.00,0.0,WeatherDisplay:10.37,2013-11-01 17:30:00,
2013-11-01 18:32:00,65.7,57.6,30.14,ENE,65,0.0,0.0,75,0.00,SCT,,0.00,0.0,WeatherDisplay:10.37,2013-11-01 17:32:00,
2013-11-01 18:33:00,65.7,57.6,30.14,ENE,65,0.0,0.0,75,0.00,SCT,,0.00,0.0,WeatherDisplay:10.37,2013-11-01 17:33:00,
2013-11-01 18:36:00,65.6,57.5,30.14,ENE,65,0.0,0.0,75,0.00,SCT,,0.00,0.0,WeatherDisplay:10.37,2013-11-01 17:36:00,
2013-11-01 18:37:00,65.6,57.5,30.14,ENE,65,0.0,0.0,75,0.00,SCT,,0.00,0.0,WeatherDisplay:10.37,2013-11-01 17:37:00,
2013-11-01 18:38:00,65.6,57.5,30.14,ENE,65,0.0,0.0,75,0.00,SCT,,0.00,0.0,WeatherDisplay:10.37,2013-11-01 17:38:00,
2013-11-01 18:41:00,65.3,57.2,30.14,East,80,0.0,0.0,75,0.00,SCT,,0.00,0.0,WeatherDisplay:10.37,2013-11-01 17:41:00,
2013-11-01 18:42:00,65.3,57.2,30.14,East,80,0.0,0.0,75,0.00,SCT,,0.00,0.0,WeatherDisplay:10.37,2013-11-01 17:42:00,
2013-11-01 18:43:00,65.1,57.0,30.14,East,80,0.0,0.0,75,0.00,SCT,,0.00,0.0,WeatherDisplay:10.37,2013-11-01 17:43:00,
2013-11-01 18:47:00,64.8,57.1,30.14,East,80,0.0,0.0,76,0.00,SCT,,0.00,0.0,WeatherDisplay:10.37,2013-11-01 17:47:00,
2013-11-01 18:48:00,64.8,57.1,30.14,East,80,0.0,0.0,76,0.00,SCT,,0.00,0.0,WeatherDisplay:10.37,2013-11-01 17:48:00,
2013-11-01 18:49:00,64.7,57.0,30.13,East,80,0.0,0.0,76,0.00,SCT,,0.00,0.0,WeatherDisplay:10.37,2013-11-01 17:49:00,
2013-11-01 18:52:00,64.7,57.0,30.13,East,80,0.0,0.0,76,0.00,SCT,,0.00,0.0,WeatherDisplay:10.37,2013-11-01 17:52:00,
2013-11-01 18:53:00,64.6,56.9,30.13,East,79,0.0,0.0,76,0.00,SCT,,0.00,0.0,WeatherDisplay:10.37,2013-11-01 17:53:00,
2013-11-01 18:54:00,64.6,56.9,30.13,ENE,65,0.0,0.0,76,0.00,SCT,,0.00,0.0,WeatherDisplay:10.37,2013-11-01 17:54:00,
2013-11-01 18:57:00,64.5,56.8,30.13,ENE,57,2.3,2.3,76,0.00,SCT,,0.00,0.0,WeatherDisplay:10.37,2013-11-01 17:57:00,
2013-11-01 18:58:00,64.4,56.7,30.13,ENE,57,2.3,2.3,76,0.00,SCT,,0.00,0.0,WeatherDisplay:10.37,2013-11-01 17:58:00,
2013-11-01 18:59:00,64.4,56.7,30.14,ENE,57,2.3,2.3,76,0.00,SCT,,0.00,0.0,WeatherDisplay:10.37,2013-11-01 17:59:00,
2013-11-01 19:00:00,64.4,56.7,30.13,ENE,57,2.3,0.0,76,0.00,SCT,,0.00,0.0,WeatherDisplay:10.37,2013-11-01 18:00:00,
2013-11-01 19:02:00,64.3,56.9,30.13,ENE,57,0.0,0.0,77,0.00,SCT,,0.00,0.0,WeatherDisplay:10.37,2013-11-01 18:02:00,
2013-11-01 19:03:00,64.3,56.9,30.13,ENE,57,0.0,0.0,77,0.00,SCT,,0.00,0.0,WeatherDisplay:10.37,2013-11-01 18:03:00,
2013-11-01 19:04:00,64.2,56.8,30.13,ENE,57,0.0,0.0,77,0.00,SCT,,0.00,0.0,WeatherDisplay:10.37,2013-11-01 18:04:00,
2013-11-01 19:06:00,64.2,56.8,30.13,ENE,57,0.0,0.0,77,0.00,SCT,,0.00,0.0,WeatherDisplay:10.37,2013-11-01 18:06:00,
2013-11-01 19:08:00,64.1,56.7,30.13,ENE,57,0.0,0.0,77,0.00,SCT,,0.00,0.0,WeatherDisplay:10.37,2013-11-01 18:08:00,
2013-11-01 19:09:00,64.1,56.7,30.13,ENE,57,0.0,0.0,77,0.00,SCT,,0.00,0.0,WeatherDisplay:10.37,2013-11-01 18:09:00,
2013-11-01 19:10:00,64.1,56.7,30.13,ENE,57,0.0,0.0,77,0.00,SCT,,0.00,0.0,WeatherDisplay:10.37,2013-11-01 18:10:00,
2013-11-01 19:11:00,64.1,56.7,30.13,ENE,57,0.0,0.0,77,0.00,SCT,,0.00,0.0,WeatherDisplay:10.37,2013-11-01 18:11:00,
2013-11-01 19:12:00,64.0,56.6,30.13,ENE,57,0.0,0.0,77,0.00,SCT,,0.00,0.0,WeatherDisplay:10.37,2013-11-01 18:12:00,
2013-11-01 19:13:00,64.0,56.6,30.13,ENE,57,0.0,0.0,77,0.00,SCT,,0.00,0.0,WeatherDisplay:10.37,2013-11-01 18:13:00,
2013-11-01 19:14:00,64.0,56.6,30.13,ENE,57,0.0,0.0,77,0.00,SCT,,0.00,0.0,WeatherDisplay:10.37,2013-11-01 18:14:00,
2013-11-01 19:15:00,64.0,56.6,30.13,ENE,57,0.0,0.0,77,0.00,SCT,,0.00,0.0,WeatherDisplay:10.37,2013-11-01 18:15:00,
2013-11-01 19:16:00,64.0,56.6,30.14,ENE,57,0.0,0.0,77,0.00,SCT,,0.00,0.0,WeatherDisplay:10.37,2013-11-01 18:16:00,
2013-11-01 19:17:00,63.9,56.5,30.13,ENE,57,0.0,0.0,77,0.00,SCT,,0.00,0.0,WeatherDisplay:10.37,2013-11-01 18:17:00,
2013-11-01 19:18:00,63.9,56.5,30.14,ENE,57,0.0,0.0,77,0.00,SCT,,0.00,0.0,WeatherDisplay:10.37,2013-11-01 18:18:00,
2013-11-01 19:19:00,63.9,56.5,30.14,ENE,57,1.2,1.2,77,0.00,SCT,,0.00,0.0,WeatherDisplay:10.37,2013-11-01 18:19:00,
2013-11-01 19:20:00,63.8,56.4,30.14,ENE,57,1.2,1.4,77,0.00,SCT,,0.00,0.0,WeatherDisplay:10.37,2013-11-01 18:20:00,
2013-11-01 19:21:00,63.8,56.4,30.14,ENE,57,2.3,0.0,77,0.00,SCT,,0.00,0.0,WeatherDisplay:10.37,2013-11-01 18:21:00,
2013-11-01 19:22:00,63.8,56.4,30.14,ENE,57,0.0,0.0,77,0.00,SCT,,0.00,0.0,WeatherDisplay:10.37,2013-11-01 18:22:00,
2013-11-01 19:24:00,63.7,56.4,30.14,ENE,57,0.0,0.0,77,0.00,SCT,,0.00,0.0,WeatherDisplay:10.37,2013-11-01 18:24:00,
2013-11-01 19:25:00,63.7,56.4,30.13,ENE,57,0.0,0.0,77,0.00,SCT,,0.00,0.0,WeatherDisplay:10.37,2013-11-01 18:25:00,
2013-11-01 19:27:00,63.6,56.3,30.14,ENE,57,0.0,0.0,77,0.00,SCT,,0.00,0.0,WeatherDisplay:10.37,2013-11-01 18:27:00,
2013-11-01 19:28:00,63.6,56.3,30.13,ENE,57,0.0,0.0,77,0.00,SCT,,0.00,0.0,WeatherDisplay:10.37,2013-11-01 18:28:00,
2013-11-01 19:29:00,63.6,56.3,30.13,ENE,57,0.0,0.0,77,0.00,SCT,,0.00,0.0,WeatherDisplay:10.37,2013-11-01 18:29:00,
2013-11-01 19:31:00,63.5,56.2,30.14,ENE,57,0.0,0.0,77,0.00,SCT,,0.00,0.0,WeatherDisplay:10.37,2013-11-01 18:31:00,
2013-11-01 19:32:00,63.5,56.2,30.13,ENE,57,0.0,0.0,77,0.00,SCT,,0.00,0.0,WeatherDisplay:10.37,2013-11-01 18:32:00,
2013-11-01 19:33:00,63.5,56.5,30.13,ENE,57,0.0,0.0,78,0.00,SCT,,0.00,0.0,WeatherDisplay:10.37,2013-11-01 18:33:00,
2013-11-01 19:47:00,63.1,56.1,30.13,ENE,57,17.3,0.0,78,0.00,CLR,,0.00,0.0,WeatherDisplay:10.37,2013-11-01 18:47:00,
2013-11-01 19:52:00,63.1,56.1,30.13,ENE,71,2.3,2.3,78,0.00,CLR,,0.00,0.0,WeatherDisplay:10.37,2013-11-01 18:52:00,
2013-11-01 19:53:00,63.1,56.1,30.13,ENE,71,2.3,2.3,78,0.00,CLR,,0.00,0.0,WeatherDisplay:10.37,2013-11-01 18:53:00,
2013-11-01 19:54:00,63.1,56.1,30.13,ENE,71,2.3,2.3,78,0.00,CLR,,0.00,0.0,WeatherDisplay:10.37,2013-11-01 18:54:00,
2013-11-01 19:57:00,63.2,56.2,30.13,ENE,72,0.0,0.0,78,0.00,CLR,,0.00,0.0,WeatherDisplay:10.37,2013-11-01 18:57:00,
2013-11-01 19:58:00,63.2,56.2,30.13,ENE,72,0.0,0.0,78,0.00,CLR,,0.00,0.0,WeatherDisplay:10.37,2013-11-01 18:58:00,
2013-11-01 19:59:00,63.2,56.2,30.13,ENE,72,0.0,0.0,78,0.00,CLR,,0.00,0.0,WeatherDisplay:10.37,2013-11-01 18:59:00,
2013-11-01 20:03:00,63.3,56.3,30.13,ENE,72,0.0,0.0,78,0.00,CLR,,0.00,0.0,WeatherDisplay:10.37,2013-11-01 19:03:00,
2013-11-01 20:04:00,63.3,56.3,30.13,ENE,72,0.0,0.0,78,0.00,CLR,,0.00,0.0,WeatherDisplay:10.37,2013-11-01 19:04:00,
2013-11-01 20:06:00,63.3,56.3,30.13,ENE,72,0.0,0.0,78,0.00,CLR,,0.00,0.0,WeatherDisplay:10.37,2013-11-01 19:06:00,
2013-11-01 20:08:00,63.3,56.3,30.13,ENE,72,0.0,0.0,78,0.00,CLR,,0.00,0.0,WeatherDisplay:10.37,2013-11-01 19:08:00,
2013-11-01 20:09:00,63.3,56.3,30.13,ENE,72,0.0,0.0,78,0.00,CLR,,0.00,0.0,WeatherDisplay:10.37,2013-11-01 19:09:00,
2013-11-01 20:11:00,63.3,56.3,30.13,ENE,72,0.0,0.0,78,0.00,CLR,,0.00,0.0,WeatherDisplay:10.37,2013-11-01 19:11:00,
2013-11-01 20:13:00,63.4,56.4,30.13,ENE,71,0.0,0.0,78,0.00,CLR,,0.00,0.0,WeatherDisplay:10.37,2013-11-01 19:13:00,
2013-11-01 20:14:00,63.4,56.4,30.14,ENE,71,0.0,0.0,78,0.00,CLR,,0.00,0.0,WeatherDisplay:10.37,2013-11-01 19:14:00,
2013-11-01 20:15:00,63.3,56.3,30.14,ENE,71,0.0,0.0,78,0.00,CLR,,0.00,0.0,WeatherDisplay:10.37,2013-11-01 19:15:00,
2013-11-01 20:18:00,63.4,56.4,30.14,ENE,72,0.0,0.0,78,0.00,CLR,,0.00,0.0,WeatherDisplay:10.37,2013-11-01 19:18:00,
2013-11-01 20:19:00,63.4,56.4,30.14,ENE,72,0.0,0.0,78,0.00,CLR,,0.00,0.0,WeatherDisplay:10.37,2013-11-01 19:19:00,
2013-11-01 20:20:00,63.4,56.4,30.14,ENE,72,0.0,0.0,78,0.00,CLR,,0.00,0.0,WeatherDisplay:10.37,2013-11-01 19:20:00,
2013-11-01 20:23:00,63.4,56.4,30.14,ENE,69,4.0,4.0,78,0.00,CLR,,0.00,0.0,WeatherDisplay:10.37,2013-11-01 19:23:00,
2013-11-01 20:24:00,63.4,56.4,30.14,ENE,68,3.5,3.5,78,0.00,CLR,,0.00,0.0,WeatherDisplay:10.37,2013-11-01 19:24:00,
2013-11-01 20:25:00,63.4,56.4,30.14,ENE,73,4.0,4.0,78,0.00,CLR,,0.00,0.0,WeatherDisplay:10.37,2013-11-01 19:25:00,
2013-11-01 20:29:00,63.5,56.5,30.14,ENE,70,2.3,2.3,78,0.00,CLR,,0.00,0.0,WeatherDisplay:10.37,2013-11-01 19:29:00,
2013-11-01 20:30:00,63.6,56.6,30.14,ENE,78,5.0,5.0,78,0.00,CLR,,0.00,0.0,WeatherDisplay:10.37,2013-11-01 19:30:00,
2013-11-01 20:31:00,63.6,56.6,30.14,NE,55,4.6,4.6,78,0.00,CLR,,0.00,0.0,WeatherDisplay:10.37,2013-11-01 19:31:00,
2013-11-01 20:34:00,63.8,56.8,30.14,ENE,60,4.0,4.0,78,0.00,CLR,,0.00,0.0,WeatherDisplay:10.37,2013-11-01 19:34:00,
2013-11-01 20:35:00,63.9,56.9,30.14,NE,49,3.5,3.7,78,0.00,CLR,,0.00,0.0,WeatherDisplay:10.37,2013-11-01 19:35:00,
2013-11-01 20:36:00,64.0,57.0,30.14,NE,50,3.5,3.5,78,0.00,CLR,,0.00,0.0,WeatherDisplay:10.37,2013-11-01 19:36:00,
2013-11-01 20:37:00,64.1,57.1,30.14,ENE,57,3.5,3.5,78,0.00,CLR,,0.00,0.0,WeatherDisplay:10.37,2013-11-01 19:37:00,
2013-11-01 20:38:00,64.1,57.1,30.14,East,79,4.6,4.6,78,0.00,CLR,,0.00,0.0,WeatherDisplay:10.37,2013-11-01 19:38:00,
2013-11-01 20:39:00,64.2,56.8,30.14,NE,49,5.8,5.8,77,0.00,CLR,,0.00,0.0,WeatherDisplay:10.37,2013-11-01 19:39:00,
2013-11-01 20:40:00,64.3,56.9,30.14,ENE,57,5.8,5.8,77,0.00,CLR,,0.00,0.0,WeatherDisplay:10.37,2013-11-01 19:40:00,
2013-11-01 20:41:00,64.3,56.9,30.14,NE,44,5.8,5.8,77,0.00,CLR,,0.00,0.0,WeatherDisplay:10.37,2013-11-01 19:41:00,
2013-11-01 20:43:00,64.4,57.0,30.14,NE,42,4.6,4.6,77,0.00,CLR,,0.00,0.0,WeatherDisplay:10.37,2013-11-01 19:43:00,
2013-11-01 20:44:00,64.5,57.1,30.14,NE,46,3.5,3.5,77,0.00,CLR,,0.00,0.0,WeatherDisplay:10.37,2013-11-01 19:44:00,
2013-11-01 20:45:00,64.5,57.1,30.14,NE,46,3.5,3.5,77,0.00,CLR,,0.00,0.0,WeatherDisplay:10.37,2013-11-01 19:45:00,
2013-11-01 20:46:00,64.6,56.9,30.14,NE,46,3.5,3.5,76,0.00,CLR,,0.00,0.0,WeatherDisplay:10.37,2013-11-01 19:46:00,
2013-11-01 20:48:00,64.6,56.9,30.14,ENE,65,3.5,3.5,76,0.00,CLR,,0.00,0.0,WeatherDisplay:10.37,2013-11-01 19:48:00,
2013-11-01 20:50:00,64.7,57.0,30.14,ENE,75,3.5,3.5,76,0.00,CLR,,0.00,0.0,WeatherDisplay:10.37,2013-11-01 19:50:00,
2013-11-01 20:51:00,64.7,57.0,30.14,ENE,75,2.3,0.0,76,0.00,CLR,,0.00,0.0,WeatherDisplay:10.37,2013-11-01 19:51:00,
2013-11-01 20:54:00,64.7,57.0,30.14,ENE,75,0.0,0.0,76,0.00,CLR,,0.00,0.0,WeatherDisplay:10.37,2013-11-01 19:54:00,
2013-11-01 20:55:00,64.7,57.0,30.14,ENE,75,0.0,0.0,76,0.00,CLR,,0.00,0.0,WeatherDisplay:10.37,2013-11-01 19:55:00,
2013-11-01 20:56:00,64.7,57.0,30.14,NE,49,0.0,0.0,76,0.00,CLR,,0.00,0.0,WeatherDisplay:10.37,2013-11-01 19:56:00,
2013-11-01 20:57:00,64.7,57.0,30.14,NE,49,1.2,0.0,76,0.00,CLR,,0.00,0.0,WeatherDisplay:10.37,2013-11-01 19:57:00,
2013-11-01 20:59:00,64.7,57.0,30.14,NE,49,0.0,0.0,76,0.00,CLR,,0.00,0.0,WeatherDisplay:10.37,2013-11-01 19:59:00,
2013-11-01 21:01:00,64.6,56.9,30.14,NE,49,0.0,0.0,76,0.00,CLR,,0.00,0.0,WeatherDisplay:10.37,2013-11-01 20:01:00,
2013-11-01 21:02:00,64.6,56.9,30.14,NE,49,0.0,0.0,76,0.00,CLR,,0.00,0.0,WeatherDisplay:10.37,2013-11-01 20:02:00,
2013-11-01 21:06:00,64.6,56.9,30.14,NE,49,0.0,0.0,76,0.00,CLR,,0.00,0.0,WeatherDisplay:10.37,2013-11-01 20:06:00,
2013-11-01 21:07:00,64.6,56.9,30.14,NE,49,0.0,0.0,76,0.00,CLR,,0.00,0.0,WeatherDisplay:10.37,2013-11-01 20:07:00,
2013-11-01 21:11:00,64.5,56.8,30.14,NE,49,0.0,0.0,76,0.00,CLR,,0.00,0.0,WeatherDisplay:10.37,2013-11-01 20:11:00,
2013-11-01 21:12:00,64.5,56.8,30.14,NE,49,0.0,0.0,76,0.00,CLR,,0.00,0.0,WeatherDisplay:10.37,2013-11-01 20:12:00,
2013-11-01 21:13:00,64.5,56.8,30.14,NE,49,0.0,0.0,76,0.00,CLR,,0.00,0.0,WeatherDisplay:10.37,2013-11-01 20:13:00,
2013-11-01 21:17:00,64.4,56.7,30.14,NE,49,0.0,0.0,76,0.00,CLR,,0.00,0.0,WeatherDisplay:10.37,2013-11-01 20:17:00,
2013-11-01 21:18:00,64.4,56.7,30.14,NE,49,0.0,0.0,76,0.00,CLR,,0.00,0.0,WeatherDisplay:10.37,2013-11-01 20:18:00,
2013-11-01 21:20:00,64.4,56.7,30.14,NE,49,0.0,0.0,76,0.00,CLR,,0.00,0.0,WeatherDisplay:10.37,2013-11-01 20:20:00,
2013-11-01 21:22:00,64.3,56.6,30.14,NE,49,0.0,0.0,76,0.00,CLR,,0.00,0.0,WeatherDisplay:10.37,2013-11-01 20:22:00,
2013-11-01 21:23:00,64.3,56.6,30.14,NE,49,0.0,0.0,76,0.00,CLR,,0.00,0.0,WeatherDisplay:10.37,2013-11-01 20:23:00,
2013-11-01 21:24:00,64.3,56.6,30.14,NE,49,0.0,0.0,76,0.00,CLR,,0.00,0.0,WeatherDisplay:10.37,2013-11-01 20:24:00,
2013-11-01 21:26:00,64.2,56.5,30.14,NE,49,0.0,0.0,76,0.00,CLR,,0.00,0.0,WeatherDisplay:10.37,2013-11-01 20:26:00,
2013-11-01 21:27:00,64.2,56.5,30.14,NE,49,0.0,0.0,76,0.00,CLR,,0.00,0.0,WeatherDisplay:10.37,2013-11-01 20:27:00,
2013-11-01 21:28:00,64.2,56.5,30.14,NE,49,0.0,0.0,76,0.00,CLR,,0.00,0.0,WeatherDisplay:10.37,2013-11-01 20:28:00,
2013-11-01 21:29:00,64.2,56.5,30.14,NE,49,0.0,0.0,76,0.00,CLR,,0.00,0.0,WeatherDisplay:10.37,2013-11-01 20:29:00,
2013-11-01 21:32:00,64.1,56.4,30.14,NE,49,0.0,0.0,76,0.00,CLR,,0.00,0.0,WeatherDisplay:10.37,2013-11-01 20:32:00,
2013-11-01 21:34:00,64.1,56.4,30.14,NE,49,0.0,0.0,76,0.00,CLR,,0.00,0.0,WeatherDisplay:10.37,2013-11-01 20:34:00,
2013-11-01 21:37:00,64.0,56.3,30.14,NE,49,0.0,0.0,76,0.00,CLR,,0.00,0.0,WeatherDisplay:10.37,2013-11-01 20:37:00,
2013-11-01 21:38:00,64.0,56.3,30.14,NE,49,0.0,0.0,76,0.00,CLR,,0.00,0.0,WeatherDisplay:10.37,2013-11-01 20:38:00,
2013-11-01 21:39:00,64.0,56.3,30.14,NE,49,0.0,0.0,76,0.00,CLR,,0.00,0.0,WeatherDisplay:10.37,2013-11-01 20:39:00,
2013-11-01 21:40:00,64.0,56.3,30.14,NE,49,0.0,0.0,76,0.00,CLR,,0.00,0.0,WeatherDisplay:10.37,2013-11-01 20:40:00,
2013-11-01 21:42:00,63.9,56.2,30.14,North,355,0.0,0.0,76,0.00,CLR,,0.00,0.0,WeatherDisplay:10.37,2013-11-01 20:42:00,
2013-11-01 21:44:00,63.9,56.2,30.14,North,355,0.0,0.0,76,0.00,CLR,,0.00,0.0,WeatherDisplay:10.37,2013-11-01 20:44:00,
2013-11-01 21:45:00,63.9,56.2,30.14,North,355,0.0,0.0,76,0.00,CLR,,0.00,0.0,WeatherDisplay:10.37,2013-11-01 20:45:00,
2013-11-01 21:48:00,63.8,56.4,30.14,North,5,0.0,0.0,77,0.00,CLR,,0.00,0.0,WeatherDisplay:10.37,2013-11-01 20:48:00,
2013-11-01 21:50:00,63.8,56.4,30.14,North,5,0.0,0.0,77,0.00,CLR,,0.00,0.0,WeatherDisplay:10.37,2013-11-01 20:50:00,
2013-11-01 21:51:00,63.7,56.4,30.14,North,5,0.0,0.0,77,0.00,CLR,,0.00,0.0,WeatherDisplay:10.37,2013-11-01 20:51:00,
2013-11-01 21:52:00,63.7,56.4,30.14,North,5,0.0,0.0,77,0.00,CLR,,0.00,0.0,WeatherDisplay:10.37,2013-11-01 20:52:00,
2013-11-01 21:53:00,63.7,56.4,30.14,North,5,0.0,0.0,77,0.00,CLR,,0.00,0.0,WeatherDisplay:10.37,2013-11-01 20:53:00,
2013-11-01 21:55:00,63.7,56.4,30.14,North,5,0.0,0.0,77,0.00,CLR,,0.00,0.0,WeatherDisplay:10.37,2013-11-01 20:55:00,
2013-11-01 21:56:00,63.7,56.4,30.14,North,5,0.0,0.0,77,0.00,CLR,,0.00,0.0,WeatherDisplay:10.37,2013-11-01 20:56:00,
2013-11-01 21:57:00,63.7,56.4,30.14,North,5,0.0,0.0,77,0.00,CLR,,0.00,0.0,WeatherDisplay:10.37,2013-11-01 20:57:00,
2013-11-01 21:58:00,63.7,56.4,30.14,North,5,0.0,0.0,77,0.00,CLR,,0.00,0.0,WeatherDisplay:10.37,2013-11-01 20:58:00,
2013-11-01 21:59:00,63.6,56.3,30.14,North,5,0.0,0.0,77,0.00,CLR,,0.00,0.0,WeatherDisplay:10.37,2013-11-01 20:59:00,
2013-11-01 22:01:00,63.6,56.3,30.14,North,5,0.0,0.0,77,0.00,CLR,,0.00,0.0,WeatherDisplay:10.37,2013-11-01 21:01:00,
2013-11-01 22:02:00,63.6,56.3,30.14,North,5,0.0,0.0,77,0.00,CLR,,0.00,0.0,WeatherDisplay:10.37,2013-11-01 21:02:00,
2013-11-01 22:03:00,63.6,56.3,30.14,North,5,0.0,0.0,77,0.00,CLR,,0.00,0.0,WeatherDisplay:10.37,2013-11-01 21:03:00,
2013-11-01 22:05:00,63.6,56.3,30.14,North,5,0.0,0.0,77,0.00,CLR,,0.00,0.0,WeatherDisplay:10.37,2013-11-01 21:05:00,
2013-11-01 22:06:00,63.6,56.3,30.14,East,86,0.0,0.0,77,0.00,CLR,,0.00,0.0,WeatherDisplay:10.37,2013-11-01 21:06:00,
2013-11-01 22:08:00,63.6,56.3,30.14,East,86,1.2,0.0,77,0.00,CLR,,0.00,0.0,WeatherDisplay:10.37,2013-11-01 21:08:00,
2013-11-01 22:09:00,63.6,56.3,30.14,East,86,0.0,0.0,77,0.00,CLR,,0.00,0.0,WeatherDisplay:10.37,2013-11-01 21:09:00,
2013-11-01 22:11:00,63.6,56.6,30.14,East,89,0.0,0.0,78,0.00,CLR,,0.00,0.0,WeatherDisplay:10.37,2013-11-01 21:11:00,
2013-11-01 22:12:00,63.6,56.6,30.14,East,95,2.0,0.0,78,0.00,CLR,,0.00,0.0,WeatherDisplay:10.37,2013-11-01 21:12:00,
2013-11-01 22:13:00,63.5,56.5,30.14,East,84,3.0,3.0,78,0.00,CLR,,0.00,0.0,WeatherDisplay:10.37,2013-11-01 21:13:00,
2013-11-01 22:14:00,63.5,56.5,30.14,East,85,3.5,3.5,78,0.00,CLR,,0.00,0.0,WeatherDisplay:10.37,2013-11-01 21:14:00,
2013-11-01 22:17:00,63.5,56.5,30.14,East,84,0.0,0.0,78,0.00,CLR,,0.00,0.0,WeatherDisplay:10.37,2013-11-01 21:17:00,
2013-11-01 22:18:00,63.4,56.4,30.14,East,84,0.0,0.0,78,0.00,CLR,,0.00,0.0,WeatherDisplay:10.37,2013-11-01 21:18:00,
2013-11-01 22:19:00,63.4,56.4,30.14,East,84,0.0,0.0,78,0.00,CLR,,0.00,0.0,WeatherDisplay:10.37,2013-11-01 21:19:00,
2013-11-01 22:23:00,63.4,56.4,30.14,East,84,0.0,0.0,78,0.00,CLR,,0.00,0.0,WeatherDisplay:10.37,2013-11-01 21:23:00,
2013-11-01 22:24:00,63.4,56.4,30.14,East,84,0.0,0.0,78,0.00,CLR,,0.00,0.0,WeatherDisplay:10.37,2013-11-01 21:24:00,
2013-11-01 22:28:00,63.4,56.4,30.14,East,84,0.0,0.0,78,0.00,CLR,,0.00,0.0,WeatherDisplay:10.37,2013-11-01 21:28:00,
2013-11-01 22:29:00,63.4,56.4,30.14,East,84,0.0,0.0,78,0.00,CLR,,0.00,0.0,WeatherDisplay:10.37,2013-11-01 21:29:00,
2013-11-01 22:30:00,63.4,56.4,30.14,East,84,0.0,0.0,78,0.00,CLR,,0.00,0.0,WeatherDisplay:10.37,2013-11-01 21:30:00,
2013-11-01 22:33:00,63.3,56.3,30.14,East,84,1.2,0.0,78,0.00,CLR,,0.00,0.0,WeatherDisplay:10.37,2013-11-01 21:33:00,
2013-11-01 22:34:00,63.3,56.3,30.14,East,84,1.2,0.0,78,0.00,CLR,,0.00,0.0,WeatherDisplay:10.37,2013-11-01 21:34:00,
2013-11-01 22:35:00,63.3,56.3,30.14,East,84,0.0,0.0,78,0.00,CLR,,0.00,0.0,WeatherDisplay:10.37,2013-11-01 21:35:00,
2013-11-01 22:39:00,63.2,56.2,30.14,East,84,0.0,0.0,78,0.00,CLR,,0.00,0.0,WeatherDisplay:10.37,2013-11-01 21:39:00,
2013-11-01 22:40:00,63.2,56.2,30.14,East,84,0.0,0.0,78,0.00,CLR,,0.00,0.0,WeatherDisplay:10.37,2013-11-01 21:40:00,
2013-11-01 22:41:00,63.2,56.2,30.14,East,84,0.0,0.0,78,0.00,CLR,,0.00,0.0,WeatherDisplay:10.37,2013-11-01 21:41:00,
2013-11-01 22:43:00,63.1,56.1,30.14,East,84,0.0,0.0,78,0.00,CLR,,0.00,0.0,WeatherDisplay:10.37,2013-11-01 21:43:00,
2013-11-01 22:44:00,63.1,56.1,30.14,East,84,0.0,0.0,78,0.00,CLR,,0.00,0.0,WeatherDisplay:10.37,2013-11-01 21:44:00,
2013-11-01 22:45:00,63.1,56.1,30.14,East,84,0.0,0.0,78,0.00,CLR,,0.00,0.0,WeatherDisplay:10.37,2013-11-01 21:45:00,
2013-11-01 22:46:00,63.1,56.1,30.14,East,84,0.0,0.0,78,0.00,CLR,,0.00,0.0,WeatherDisplay:10.37,2013-11-01 21:46:00,
2013-11-01 22:48:00,63.0,56.0,30.14,East,84,0.0,0.0,78,0.00,CLR,,0.00,0.0,WeatherDisplay:10.37,2013-11-01 21:48:00,
2013-11-01 22:49:00,63.0,56.0,30.14,East,84,0.0,0.0,78,0.00,CLR,,0.00,0.0,WeatherDisplay:10.37,2013-11-01 21:49:00,
2013-11-01 22:50:00,63.0,56.0,30.14,East,84,0.0,0.0,78,0.00,CLR,,0.00,0.0,WeatherDisplay:10.37,2013-11-01 21:50:00,
2013-11-01 22:51:00,63.0,56.0,30.14,East,84,0.0,0.0,78,0.00,CLR,,0.00,0.0,WeatherDisplay:10.37,2013-11-01 21:51:00,
2013-11-01 22:54:00,62.9,55.9,30.14,East,84,0.0,0.0,78,0.00,CLR,,0.00,0.0,WeatherDisplay:10.37,2013-11-01 21:54:00,
2013-11-01 22:55:00,62.9,55.9,30.14,East,84,0.0,0.0,78,0.00,CLR,,0.00,0.0,WeatherDisplay:10.37,2013-11-01 21:55:00,
2013-11-01 22:56:00,62.9,55.9,30.14,East,84,0.0,0.0,78,0.00,CLR,,0.00,0.0,WeatherDisplay:10.37,2013-11-01 21:56:00,
2013-11-01 22:57:00,62.9,55.9,30.14,East,84,0.0,0.0,78,0.00,CLR,,0.00,0.0,WeatherDisplay:10.37,2013-11-01 21:57:00,
2013-11-01 22:59:00,62.9,55.9,30.15,East,84,0.0,0.0,78,0.00,CLR,,0.00,0.0,WeatherDisplay:10.37,2013-11-01 21:59:00,
2013-11-01 23:00:00,62.8,55.8,30.15,East,84,0.0,0.0,78,0.00,CLR,,0.00,0.0,WeatherDisplay:10.37,2013-11-01 22:00:00,
2013-11-01 23:01:00,62.8,55.8,30.15,East,84,0.0,0.0,78,0.00,CLR,,0.00,0.0,WeatherDisplay:10.37,2013-11-01 22:01:00,
2013-11-01 23:03:00,62.8,56.2,30.14,East,84,0.0,0.0,79,0.00,CLR,,0.00,0.0,WeatherDisplay:10.37,2013-11-01 22:03:00,
2013-11-01 23:05:00,62.8,56.2,30.14,East,84,0.0,0.0,79,0.00,CLR,,0.00,0.0,WeatherDisplay:10.37,2013-11-01 22:05:00,
2013-11-01 23:06:00,62.8,56.2,30.14,East,84,0.0,0.0,79,0.00,CLR,,0.00,0.0,WeatherDisplay:10.37,2013-11-01 22:06:00,
2013-11-01 23:07:00,62.8,56.2,30.14,East,84,0.0,0.0,79,0.00,CLR,,0.00,0.0,WeatherDisplay:10.37,2013-11-01 22:07:00,
2013-11-01 23:08:00,62.7,56.1,30.14,East,84,0.0,0.0,79,0.00,CLR,,0.00,0.0,WeatherDisplay:10.37,2013-11-01 22:08:00,
2013-11-01 23:11:00,62.6,56.0,30.14,East,84,0.0,0.0,79,0.00,CLR,,0.00,0.0,WeatherDisplay:10.37,2013-11-01 22:11:00,
2013-11-01 23:12:00,62.6,56.0,30.14,East,84,0.0,0.0,79,0.00,CLR,,0.00,0.0,WeatherDisplay:10.37,2013-11-01 22:12:00,
2013-11-01 23:13:00,62.6,56.0,30.14,East,84,0.0,0.0,79,0.00,CLR,,0.00,0.0,WeatherDisplay:10.37,2013-11-01 22:13:00,
2013-11-01 23:16:00,62.5,55.9,30.14,East,84,0.0,0.0,79,0.00,CLR,,0.00,0.0,WeatherDisplay:10.37,2013-11-01 22:16:00,
2013-11-01 23:17:00,62.5,55.9,30.14,East,84,0.0,0.0,79,0.00,CLR,,0.00,0.0,WeatherDisplay:10.37,2013-11-01 22:17:00,
2013-11-01 23:18:00,62.5,55.9,30.14,East,84,0.0,0.0,79,0.00,CLR,,0.00,0.0,WeatherDisplay:10.37,2013-11-01 22:18:00,
2013-11-01 23:21:00,62.4,55.8,30.14,East,84,0.0,0.0,79,0.00,CLR,,0.00,0.0,WeatherDisplay:10.37,2013-11-01 22:21:00,
2013-11-01 23:22:00,62.3,55.7,30.14,East,85,2.0,2.0,79,0.00,CLR,,0.00,0.0,WeatherDisplay:10.37,2013-11-01 22:22:00,
2013-11-01 23:24:00,62.3,55.7,30.14,East,85,2.3,2.3,79,0.00,CLR,,0.00,0.0,WeatherDisplay:10.37,2013-11-01 22:24:00,
2013-11-01 23:26:00,62.2,55.6,30.14,ENE,75,3.5,3.5,79,0.00,CLR,,0.00,0.0,WeatherDisplay:10.37,2013-11-01 22:26:00,
2013-11-01 23:27:00,62.3,55.7,30.14,ENE,75,0.0,0.0,79,0.00,CLR,,0.00,0.0,WeatherDisplay:10.37,2013-11-01 22:27:00,
2013-11-01 23:28:00,62.2,55.6,30.14,ENE,75,0.0,0.0,79,0.00,CLR,,0.00,0.0,WeatherDisplay:10.37,2013-11-01 22:28:00,
2013-11-01 23:29:00,62.3,55.7,30.15,ENE,76,1.2,0.0,79,0.00,CLR,,0.00,0.0,WeatherDisplay:10.37,2013-11-01 22:29:00,
2013-11-01 23:31:00,62.2,55.6,30.15,ENE,67,4.0,4.0,79,0.00,CLR,,0.00,0.0,WeatherDisplay:10.37,2013-11-01 22:31:00,
2013-11-01 23:33:00,62.2,55.6,30.14,NE,44,3.5,3.5,79,0.00,CLR,,0.00,0.0,WeatherDisplay:10.37,2013-11-01 22:33:00,
2013-11-01 23:34:00,62.2,55.6,30.14,NE,56,3.5,3.5,79,0.00,CLR,,0.00,0.0,WeatherDisplay:10.37,2013-11-01 22:34:00,
2013-11-01 23:36:00,62.2,55.6,30.14,NE,55,4.0,4.0,79,0.00,CLR,,0.00,0.0,WeatherDisplay:10.37,2013-11-01 22:36:00,
2013-11-01 23:38:00,62.2,55.6,30.14,NE,46,4.6,4.6,79,0.00,CLR,,0.00,0.0,WeatherDisplay:10.37,2013-11-01 22:38:00,
2013-11-01 23:39:00,62.3,55.7,30.15,NE,54,3.5,3.5,79,0.00,CLR,,0.00,0.0,WeatherDisplay:10.37,2013-11-01 22:39:00,
2013-11-01 23:40:00,62.2,55.6,30.15,NE,38,3.5,3.5,79,0.00,CLR,,0.00,0.0,WeatherDisplay:10.37,2013-11-01 22:40:00,
2013-11-01 23:41:00,62.3,55.7,30.15,NE,52,4.0,4.0,79,0.00,CLR,,0.00,0.0,WeatherDisplay:10.37,2013-11-01 22:41:00,
2013-11-01 23:43:00,62.3,55.7,30.15,NE,49,4.0,4.0,79,0.00,CLR,,0.00,0.0,WeatherDisplay:10.37,2013-11-01 22:43:00,
2013-11-01 23:45:00,62.3,55.7,30.15,NNE,27,3.5,3.5,79,0.00,CLR,,0.00,0.0,WeatherDisplay:10.37,2013-11-01 22:45:00,
2013-11-01 23:46:00,62.3,55.7,30.15,NE,42,3.5,3.5,79,0.00,CLR,,0.00,0.0,WeatherDisplay:10.37,2013-11-01 22:46:00,
2013-11-01 23:47:00,62.3,55.7,30.15,NE,42,3.5,3.5,79,0.00,CLR,,0.00,0.0,WeatherDisplay:10.37,2013-11-01 22:47:00,
2013-11-01 23:48:00,62.4,55.8,30.15,NE,38,3.5,3.5,79,0.00,CLR,,0.00,0.0,WeatherDisplay:10.37,2013-11-01 22:48:00,
2013-11-01 23:49:00,62.3,55.7,30.15,NNW,330,3.5,3.5,79,0.00,CLR,,0.00,0.0,WeatherDisplay:10.37,2013-11-01 22:49:00,
2013-11-01 23:50:00,62.3,55.7,30.15,NW,310,3.5,3.5,79,0.00,CLR,,0.00,0.0,WeatherDisplay:10.37,2013-11-01 22:50:00,
2013-11-01 23:52:00,62.3,55.7,30.15,NNW,329,2.3,2.3,79,0.00,CLR,,0.00,0.0,WeatherDisplay:10.37,2013-11-01 22:52:00,
2013-11-01 23:53:00,62.2,55.6,30.15,NNW,329,2.3,2.3,79,0.00,CLR,,0.00,0.0,WeatherDisplay:10.37,2013-11-01 22:53:00,
2013-11-01 23:54:00,62.2,55.6,30.15,NNW,329,1.2,0.0,79,0.00,CLR,,0.00,0.0,WeatherDisplay:10.37,2013-11-01 22:54:00,
2013-11-01 23:55:00,62.2,55.6,30.15,NNW,329,0.0,0.0,79,0.00,CLR,,0.00,0.0,WeatherDisplay:10.37,2013-11-01 22:55:00,
2013-11-01 23:57:00,62.2,55.6,30.14,NNW,329,0.0,0.0,79,0.00,CLR,,0.00,0.0,WeatherDisplay:10.37,2013-11-01 22:57:00,
2013-11-01 23:58:00,62.1,55.5,30.15,NNW,329,0.0,0.0,79,0.00,CLR,,0.00,0.0,WeatherDisplay:10.37,2013-11-01 22:58:00,
2013-11-01 23:59:00,62.1,55.5,30.15,NNW,330,0.0,0.0,79,0.00,CLR,,0.00,0.0,WeatherDisplay:10.37,2013-11-01 22:59:00,